首页
METAR-TAF:

METAR-TAF

机场 :

科克赛德, 比利时

纬度: 51-05N, 经度: 002-39E, 海拔: 4米

当前天气观测

该预报发布于28分钟前的00:25 UTC
风速3节,风向西转西南
温度 4°C
湿度 87%
气压 1010 hPa
能見度: 6000

METAR: EBFN 180025Z AUTO 25003KT 6000 BKN140/// 04/02 Q1010 WHT

时间: 01:53 (00:53 UTC)

预报

该预报发布于9小时和12分钟前的15:41 UTC
预报有效从17日的 19点(UTC)到 18日的 07点(UTC)
风速15节,风向北转东北
能见度10公里或以上
散云层高于2500英尺
多云层高于20000英尺
短暂存在
从 17日的 01点(UTC)到 18日的 07点(UTC)
风速20节,风向北转东北,有时为30节阵风
能見度: 4000
少量云层高于1200英尺
散云层高于1500英尺
散云层高于2500英尺

TAF: EBFN 171541Z 1719/1807 03015KT 9999 SCT025 BKN200 TEMPO 1701/1807 02020G30KT 4000 -RA/-SHRA FEW012 SCT015 SCT025

超过4000个机场的气象观测和天气预报(METAR&TAF报告)。

可查询的气象台以黄色和红色小点在地图上表示。

将鼠标移到小点上方,可查看气象台名称。

然后点击查看天气观测和预报。

如需切换地图:点击带黑十字的绿色按钮放大地图;点击带横线的绿色按钮缩小地图;或者点击绿色箭头查看邻近地区的地图。


METAR-TAF: